<?xml version="1.0" encoding="UTF-8" standalone="no" ?>
<gpx xmlns="http://www.topografix.com/GPX/1/1" xmlns:xsi="http://www.w3.org/2001/XMLSchema-instance" xsi:schemaLocation="http://www.topografix.com/GPX/1/1 http://www.topografix.com/GPX/1/1/gpx.xsd" version="1.1" creator="VisuGPX - https://www.visugpx.com">
  <metadata>
    <name>Saint Romain des Atheux 17km</name>
    <desc><![CDATA[Equestival 2024]]></desc>
  </metadata>
  <trk>
    <name><![CDATA[Equestival24 parcours du dimanche-19428546]]></name>
    <extensions>
      <line xmlns="http://www.topografix.com/GPX/gpx_style/0/2">
        <color>0000FF</color>
        <width>4</width>
      </line>
    </extensions>
    <trkseg>
      <trkpt lat="45.35879" lon="4.37621">
        <ele>878</ele>
        <time>2024-07-15T09:10:25Z</time>
      </trkpt>
      <trkpt lat="45.35901" lon="4.37604">
        <ele>878</ele>
        <time>2024-07-15T09:10:45Z</time>
      </trkpt>
      <trkpt lat="45.35927" lon="4.37594">
        <ele>876</ele>
        <time>2024-07-15T09:11:07Z</time>
      </trkpt>
      <trkpt lat="45.35982" lon="4.37585">
        <ele>871</ele>
        <time>2024-07-15T09:11:51Z</time>
      </trkpt>
      <trkpt lat="45.36022" lon="4.37584">
        <ele>868</ele>
        <time>2024-07-15T09:12:23Z</time>
      </trkpt>
      <trkpt lat="45.36048" lon="4.37587">
        <ele>866</ele>
        <time>2024-07-15T09:12:44Z</time>
      </trkpt>
      <trkpt lat="45.36047" lon="4.37585">
        <ele>866</ele>
        <time>2024-07-15T09:12:45Z</time>
      </trkpt>
      <trkpt lat="45.36048" lon="4.37587">
        <ele>866</ele>
        <time>2024-07-15T09:12:47Z</time>
      </trkpt>
      <trkpt lat="45.36057" lon="4.37586">
        <ele>866</ele>
        <time>2024-07-15T09:12:54Z</time>
      </trkpt>
      <trkpt lat="45.36068" lon="4.37575">
        <ele>864</ele>
        <time>2024-07-15T09:13:05Z</time>
      </trkpt>
      <trkpt lat="45.36096" lon="4.37541">
        <ele>861</ele>
        <time>2024-07-15T09:13:34Z</time>
      </trkpt>
      <trkpt lat="45.36114" lon="4.37526">
        <ele>860</ele>
        <time>2024-07-15T09:13:51Z</time>
      </trkpt>
      <trkpt lat="45.3617" lon="4.37507">
        <ele>860</ele>
        <time>2024-07-15T09:14:37Z</time>
      </trkpt>
      <trkpt lat="45.36186" lon="4.37685">
        <ele>877</ele>
        <time>2024-07-15T09:16:18Z</time>
      </trkpt>
      <trkpt lat="45.36178" lon="4.37824">
        <ele>889</ele>
        <time>2024-07-15T09:17:36Z</time>
      </trkpt>
      <trkpt lat="45.36216" lon="4.37919">
        <ele>897</ele>
        <time>2024-07-15T09:18:38Z</time>
      </trkpt>
      <trkpt lat="45.36218" lon="4.37915">
        <ele>896</ele>
        <time>2024-07-15T09:18:41Z</time>
      </trkpt>
      <trkpt lat="45.36223" lon="4.37928">
        <ele>897</ele>
        <time>2024-07-15T09:18:49Z</time>
      </trkpt>
      <trkpt lat="45.36251" lon="4.37949">
        <ele>895</ele>
        <time>2024-07-15T09:19:14Z</time>
      </trkpt>
      <trkpt lat="45.36289" lon="4.3799">
        <ele>893</ele>
        <time>2024-07-15T09:19:52Z</time>
      </trkpt>
      <trkpt lat="45.36315" lon="4.38028">
        <ele>890</ele>
        <time>2024-07-15T09:20:22Z</time>
      </trkpt>
      <trkpt lat="45.36344" lon="4.38096">
        <ele>886</ele>
        <time>2024-07-15T09:21:07Z</time>
      </trkpt>
      <trkpt lat="45.36371" lon="4.38169">
        <ele>878</ele>
        <time>2024-07-15T09:21:53Z</time>
      </trkpt>
      <trkpt lat="45.36379" lon="4.38223">
        <ele>876</ele>
        <time>2024-07-15T09:22:24Z</time>
      </trkpt>
      <trkpt lat="45.36383" lon="4.38244">
        <ele>875</ele>
        <time>2024-07-15T09:22:37Z</time>
      </trkpt>
      <trkpt lat="45.36408" lon="4.38285">
        <ele>876</ele>
        <time>2024-07-15T09:23:07Z</time>
      </trkpt>
      <trkpt lat="45.36429" lon="4.38342">
        <ele>878</ele>
        <time>2024-07-15T09:23:43Z</time>
      </trkpt>
      <trkpt lat="45.36442" lon="4.38398">
        <ele>880</ele>
        <time>2024-07-15T09:24:17Z</time>
      </trkpt>
      <trkpt lat="45.36439" lon="4.38397">
        <ele>880</ele>
        <time>2024-07-15T09:24:19Z</time>
      </trkpt>
      <trkpt lat="45.36442" lon="4.38398">
        <ele>880</ele>
        <time>2024-07-15T09:24:22Z</time>
      </trkpt>
      <trkpt lat="45.36481" lon="4.38439">
        <ele>880</ele>
        <time>2024-07-15T09:25:00Z</time>
      </trkpt>
      <trkpt lat="45.3651" lon="4.38473">
        <ele>884</ele>
        <time>2024-07-15T09:25:30Z</time>
      </trkpt>
      <trkpt lat="45.36535" lon="4.38495">
        <ele>887</ele>
        <time>2024-07-15T09:25:54Z</time>
      </trkpt>
      <trkpt lat="45.3656" lon="4.38503">
        <ele>888</ele>
        <time>2024-07-15T09:26:15Z</time>
      </trkpt>
      <trkpt lat="45.36582" lon="4.38495">
        <ele>887</ele>
        <time>2024-07-15T09:26:33Z</time>
      </trkpt>
      <trkpt lat="45.36604" lon="4.38493">
        <ele>887</ele>
        <time>2024-07-15T09:26:50Z</time>
      </trkpt>
      <trkpt lat="45.36614" lon="4.38498">
        <ele>888</ele>
        <time>2024-07-15T09:26:59Z</time>
      </trkpt>
      <trkpt lat="45.36619" lon="4.38504">
        <ele>889</ele>
        <time>2024-07-15T09:27:04Z</time>
      </trkpt>
      <trkpt lat="45.36642" lon="4.38538">
        <ele>893</ele>
        <time>2024-07-15T09:27:31Z</time>
      </trkpt>
      <trkpt lat="45.36681" lon="4.38574">
        <ele>895</ele>
        <time>2024-07-15T09:28:08Z</time>
      </trkpt>
      <trkpt lat="45.36702" lon="4.38602">
        <ele>896</ele>
        <time>2024-07-15T09:28:31Z</time>
      </trkpt>
      <trkpt lat="45.36731" lon="4.38635">
        <ele>897</ele>
        <time>2024-07-15T09:29:01Z</time>
      </trkpt>
      <trkpt lat="45.36763" lon="4.3865">
        <ele>896</ele>
        <time>2024-07-15T09:29:28Z</time>
      </trkpt>
      <trkpt lat="45.36783" lon="4.38662">
        <ele>895</ele>
        <time>2024-07-15T09:29:45Z</time>
      </trkpt>
      <trkpt lat="45.36798" lon="4.38688">
        <ele>893</ele>
        <time>2024-07-15T09:30:04Z</time>
      </trkpt>
      <trkpt lat="45.36821" lon="4.38765">
        <ele>891</ele>
        <time>2024-07-15T09:30:51Z</time>
      </trkpt>
      <trkpt lat="45.36826" lon="4.38779">
        <ele>890</ele>
        <time>2024-07-15T09:31:00Z</time>
      </trkpt>
      <trkpt lat="45.36837" lon="4.38807">
        <ele>888</ele>
        <time>2024-07-15T09:31:18Z</time>
      </trkpt>
      <trkpt lat="45.3684" lon="4.3885">
        <ele>886</ele>
        <time>2024-07-15T09:31:42Z</time>
      </trkpt>
      <trkpt lat="45.36838" lon="4.38887">
        <ele>882</ele>
        <time>2024-07-15T09:32:03Z</time>
      </trkpt>
      <trkpt lat="45.3683" lon="4.38912">
        <ele>880</ele>
        <time>2024-07-15T09:32:18Z</time>
      </trkpt>
      <trkpt lat="45.36801" lon="4.38951">
        <ele>881</ele>
        <time>2024-07-15T09:32:50Z</time>
      </trkpt>
      <trkpt lat="45.36788" lon="4.38975">
        <ele>880</ele>
        <time>2024-07-15T09:33:07Z</time>
      </trkpt>
      <trkpt lat="45.36751" lon="4.39056">
        <ele>876</ele>
        <time>2024-07-15T09:34:02Z</time>
      </trkpt>
      <trkpt lat="45.36719" lon="4.39131">
        <ele>873</ele>
        <time>2024-07-15T09:34:51Z</time>
      </trkpt>
      <trkpt lat="45.36711" lon="4.39156">
        <ele>872</ele>
        <time>2024-07-15T09:35:07Z</time>
      </trkpt>
      <trkpt lat="45.36714" lon="4.39164">
        <ele>870</ele>
        <time>2024-07-15T09:35:12Z</time>
      </trkpt>
      <trkpt lat="45.36723" lon="4.39181">
        <ele>868</ele>
        <time>2024-07-15T09:35:24Z</time>
      </trkpt>
      <trkpt lat="45.36743" lon="4.39206">
        <ele>865</ele>
        <time>2024-07-15T09:35:45Z</time>
      </trkpt>
      <trkpt lat="45.3675" lon="4.39345">
        <ele>878</ele>
        <time>2024-07-15T09:37:03Z</time>
      </trkpt>
      <trkpt lat="45.36746" lon="4.39374">
        <ele>879</ele>
        <time>2024-07-15T09:37:20Z</time>
      </trkpt>
      <trkpt lat="45.36741" lon="4.39405">
        <ele>881</ele>
        <time>2024-07-15T09:37:38Z</time>
      </trkpt>
      <trkpt lat="45.36787" lon="4.3959">
        <ele>871</ele>
        <time>2024-07-15T09:39:28Z</time>
      </trkpt>
      <trkpt lat="45.36794" lon="4.39624">
        <ele>866</ele>
        <time>2024-07-15T09:39:48Z</time>
      </trkpt>
      <trkpt lat="45.36788" lon="4.39742">
        <ele>853</ele>
        <time>2024-07-15T09:40:55Z</time>
      </trkpt>
      <trkpt lat="45.3677" lon="4.39818">
        <ele>847</ele>
        <time>2024-07-15T09:41:40Z</time>
      </trkpt>
      <trkpt lat="45.36739" lon="4.3993">
        <ele>839</ele>
        <time>2024-07-15T09:42:48Z</time>
      </trkpt>
      <trkpt lat="45.36732" lon="4.39943">
        <ele>838</ele>
        <time>2024-07-15T09:42:57Z</time>
      </trkpt>
      <trkpt lat="45.36728" lon="4.39951">
        <ele>837</ele>
        <time>2024-07-15T09:43:02Z</time>
      </trkpt>
      <trkpt lat="45.36699" lon="4.39975">
        <ele>837</ele>
        <time>2024-07-15T09:43:29Z</time>
      </trkpt>
      <trkpt lat="45.36669" lon="4.39966">
        <ele>841</ele>
        <time>2024-07-15T09:43:54Z</time>
      </trkpt>
      <trkpt lat="45.36601" lon="4.39939">
        <ele>853</ele>
        <time>2024-07-15T09:44:50Z</time>
      </trkpt>
      <trkpt lat="45.36565" lon="4.39876">
        <ele>869</ele>
        <time>2024-07-15T09:45:36Z</time>
      </trkpt>
      <trkpt lat="45.36549" lon="4.39845">
        <ele>877</ele>
        <time>2024-07-15T09:45:58Z</time>
      </trkpt>
      <trkpt lat="45.36525" lon="4.39841">
        <ele>881</ele>
        <time>2024-07-15T09:46:17Z</time>
      </trkpt>
      <trkpt lat="45.36514" lon="4.39883">
        <ele>876</ele>
        <time>2024-07-15T09:46:42Z</time>
      </trkpt>
      <trkpt lat="45.36497" lon="4.39911">
        <ele>874</ele>
        <time>2024-07-15T09:47:03Z</time>
      </trkpt>
      <trkpt lat="45.36443" lon="4.39988">
        <ele>872</ele>
        <time>2024-07-15T09:48:04Z</time>
      </trkpt>
      <trkpt lat="45.3642" lon="4.39998">
        <ele>874</ele>
        <time>2024-07-15T09:48:23Z</time>
      </trkpt>
      <trkpt lat="45.364" lon="4.40007">
        <ele>872</ele>
        <time>2024-07-15T09:48:40Z</time>
      </trkpt>
      <trkpt lat="45.36349" lon="4.39977">
        <ele>876</ele>
        <time>2024-07-15T09:49:24Z</time>
      </trkpt>
      <trkpt lat="45.36271" lon="4.39858">
        <ele>886</ele>
        <time>2024-07-15T09:50:56Z</time>
      </trkpt>
      <trkpt lat="45.36244" lon="4.39825">
        <ele>889</ele>
        <time>2024-07-15T09:51:24Z</time>
      </trkpt>
      <trkpt lat="45.36232" lon="4.39811">
        <ele>891</ele>
        <time>2024-07-15T09:51:37Z</time>
      </trkpt>
      <trkpt lat="45.36187" lon="4.3979">
        <ele>895</ele>
        <time>2024-07-15T09:52:15Z</time>
      </trkpt>
      <trkpt lat="45.36153" lon="4.39769">
        <ele>898</ele>
        <time>2024-07-15T09:52:44Z</time>
      </trkpt>
      <trkpt lat="45.36121" lon="4.3972">
        <ele>905</ele>
        <time>2024-07-15T09:53:22Z</time>
      </trkpt>
      <trkpt lat="45.36089" lon="4.39707">
        <ele>906</ele>
        <time>2024-07-15T09:53:49Z</time>
      </trkpt>
      <trkpt lat="45.36023" lon="4.39687">
        <ele>908</ele>
        <time>2024-07-15T09:54:43Z</time>
      </trkpt>
      <trkpt lat="45.3602" lon="4.39682">
        <ele>909</ele>
        <time>2024-07-15T09:54:46Z</time>
      </trkpt>
      <trkpt lat="45.36017" lon="4.39678">
        <ele>909</ele>
        <time>2024-07-15T09:54:50Z</time>
      </trkpt>
      <trkpt lat="45.3602" lon="4.39666">
        <ele>910</ele>
        <time>2024-07-15T09:54:57Z</time>
      </trkpt>
      <trkpt lat="45.36037" lon="4.39667">
        <ele>911</ele>
        <time>2024-07-15T09:55:11Z</time>
      </trkpt>
      <trkpt lat="45.36072" lon="4.3968">
        <ele>911</ele>
        <time>2024-07-15T09:55:40Z</time>
      </trkpt>
      <trkpt lat="45.36139" lon="4.39682">
        <ele>913</ele>
        <time>2024-07-15T09:56:33Z</time>
      </trkpt>
      <trkpt lat="45.36246" lon="4.39669">
        <ele>909</ele>
        <time>2024-07-15T09:57:59Z</time>
      </trkpt>
      <trkpt lat="45.36308" lon="4.39642">
        <ele>909</ele>
        <time>2024-07-15T09:58:51Z</time>
      </trkpt>
      <trkpt lat="45.36313" lon="4.3964">
        <ele>909</ele>
        <time>2024-07-15T09:58:55Z</time>
      </trkpt>
      <trkpt lat="45.36298" lon="4.39566">
        <ele>920</ele>
        <time>2024-07-15T09:59:39Z</time>
      </trkpt>
      <trkpt lat="45.36291" lon="4.3954">
        <ele>923</ele>
        <time>2024-07-15T09:59:54Z</time>
      </trkpt>
      <trkpt lat="45.36303" lon="4.39478">
        <ele>927</ele>
        <time>2024-07-15T10:00:30Z</time>
      </trkpt>
      <trkpt lat="45.36296" lon="4.39448">
        <ele>930</ele>
        <time>2024-07-15T10:00:48Z</time>
      </trkpt>
      <trkpt lat="45.36289" lon="4.39418">
        <ele>934</ele>
        <time>2024-07-15T10:01:06Z</time>
      </trkpt>
      <trkpt lat="45.3626" lon="4.39367">
        <ele>940</ele>
        <time>2024-07-15T10:01:43Z</time>
      </trkpt>
      <trkpt lat="45.36245" lon="4.39293">
        <ele>942</ele>
        <time>2024-07-15T10:02:26Z</time>
      </trkpt>
      <trkpt lat="45.36229" lon="4.39252">
        <ele>943</ele>
        <time>2024-07-15T10:02:53Z</time>
      </trkpt>
      <trkpt lat="45.36198" lon="4.39218">
        <ele>943</ele>
        <time>2024-07-15T10:03:24Z</time>
      </trkpt>
      <trkpt lat="45.3616" lon="4.39157">
        <ele>937</ele>
        <time>2024-07-15T10:04:10Z</time>
      </trkpt>
      <trkpt lat="45.3615" lon="4.39165">
        <ele>939</ele>
        <time>2024-07-15T10:04:19Z</time>
      </trkpt>
      <trkpt lat="45.36111" lon="4.39201">
        <ele>944</ele>
        <time>2024-07-15T10:04:56Z</time>
      </trkpt>
      <trkpt lat="45.36064" lon="4.39218">
        <ele>947</ele>
        <time>2024-07-15T10:05:35Z</time>
      </trkpt>
      <trkpt lat="45.36011" lon="4.39222">
        <ele>952</ele>
        <time>2024-07-15T10:06:18Z</time>
      </trkpt>
      <trkpt lat="45.35955" lon="4.39222">
        <ele>955</ele>
        <time>2024-07-15T10:07:02Z</time>
      </trkpt>
      <trkpt lat="45.35872" lon="4.39176">
        <ele>963</ele>
        <time>2024-07-15T10:08:14Z</time>
      </trkpt>
      <trkpt lat="45.35831" lon="4.39164">
        <ele>964</ele>
        <time>2024-07-15T10:08:47Z</time>
      </trkpt>
      <trkpt lat="45.35783" lon="4.39151">
        <ele>962</ele>
        <time>2024-07-15T10:09:26Z</time>
      </trkpt>
      <trkpt lat="45.35681" lon="4.39151">
        <ele>963</ele>
        <time>2024-07-15T10:10:48Z</time>
      </trkpt>
      <trkpt lat="45.35619" lon="4.39141">
        <ele>967</ele>
        <time>2024-07-15T10:11:38Z</time>
      </trkpt>
      <trkpt lat="45.35612" lon="4.3915">
        <ele>968</ele>
        <time>2024-07-15T10:11:46Z</time>
      </trkpt>
      <trkpt lat="45.35539" lon="4.39243">
        <ele>968</ele>
        <time>2024-07-15T10:13:04Z</time>
      </trkpt>
      <trkpt lat="45.35496" lon="4.39293">
        <ele>966</ele>
        <time>2024-07-15T10:13:48Z</time>
      </trkpt>
      <trkpt lat="45.3546" lon="4.39332">
        <ele>965</ele>
        <time>2024-07-15T10:14:25Z</time>
      </trkpt>
      <trkpt lat="45.35423" lon="4.39358">
        <ele>967</ele>
        <time>2024-07-15T10:14:58Z</time>
      </trkpt>
      <trkpt lat="45.3541" lon="4.39372">
        <ele>967</ele>
        <time>2024-07-15T10:15:11Z</time>
      </trkpt>
      <trkpt lat="45.35401" lon="4.39381">
        <ele>967</ele>
        <time>2024-07-15T10:15:20Z</time>
      </trkpt>
      <trkpt lat="45.35381" lon="4.39429">
        <ele>966</ele>
        <time>2024-07-15T10:15:51Z</time>
      </trkpt>
      <trkpt lat="45.35375" lon="4.39442">
        <ele>966</ele>
        <time>2024-07-15T10:16:00Z</time>
      </trkpt>
      <trkpt lat="45.35385" lon="4.39449">
        <ele>966</ele>
        <time>2024-07-15T10:16:09Z</time>
      </trkpt>
      <trkpt lat="45.35391" lon="4.39488">
        <ele>966</ele>
        <time>2024-07-15T10:16:31Z</time>
      </trkpt>
      <trkpt lat="45.35399" lon="4.39512">
        <ele>966</ele>
        <time>2024-07-15T10:16:46Z</time>
      </trkpt>
      <trkpt lat="45.354" lon="4.39523">
        <ele>967</ele>
        <time>2024-07-15T10:16:52Z</time>
      </trkpt>
      <trkpt lat="45.35389" lon="4.39614">
        <ele>972</ele>
        <time>2024-07-15T10:17:44Z</time>
      </trkpt>
      <trkpt lat="45.3537" lon="4.39689">
        <ele>975</ele>
        <time>2024-07-15T10:18:29Z</time>
      </trkpt>
      <trkpt lat="45.35366" lon="4.39848">
        <ele>986</ele>
        <time>2024-07-15T10:19:59Z</time>
      </trkpt>
      <trkpt lat="45.35372" lon="4.39986">
        <ele>989</ele>
        <time>2024-07-15T10:21:16Z</time>
      </trkpt>
      <trkpt lat="45.35353" lon="4.40054">
        <ele>989</ele>
        <time>2024-07-15T10:21:58Z</time>
      </trkpt>
      <trkpt lat="45.35351" lon="4.40119">
        <ele>990</ele>
        <time>2024-07-15T10:22:34Z</time>
      </trkpt>
      <trkpt lat="45.35344" lon="4.40286">
        <ele>1000</ele>
        <time>2024-07-15T10:24:08Z</time>
      </trkpt>
      <trkpt lat="45.35326" lon="4.40381">
        <ele>1006</ele>
        <time>2024-07-15T10:25:04Z</time>
      </trkpt>
      <trkpt lat="45.35327" lon="4.40405">
        <ele>1007</ele>
        <time>2024-07-15T10:25:17Z</time>
      </trkpt>
      <trkpt lat="45.35335" lon="4.40439">
        <ele>1009</ele>
        <time>2024-07-15T10:25:37Z</time>
      </trkpt>
      <trkpt lat="45.35364" lon="4.40478">
        <ele>1014</ele>
        <time>2024-07-15T10:26:09Z</time>
      </trkpt>
      <trkpt lat="45.35371" lon="4.40488">
        <ele>1015</ele>
        <time>2024-07-15T10:26:17Z</time>
      </trkpt>
      <trkpt lat="45.35364" lon="4.40478">
        <ele>1014</ele>
        <time>2024-07-15T10:26:25Z</time>
      </trkpt>
      <trkpt lat="45.35362" lon="4.40502">
        <ele>1017</ele>
        <time>2024-07-15T10:26:39Z</time>
      </trkpt>
      <trkpt lat="45.35352" lon="4.40622">
        <ele>1029</ele>
        <time>2024-07-15T10:27:47Z</time>
      </trkpt>
      <trkpt lat="45.35352" lon="4.40698">
        <ele>1034</ele>
        <time>2024-07-15T10:28:30Z</time>
      </trkpt>
      <trkpt lat="45.35329" lon="4.4081">
        <ele>1039</ele>
        <time>2024-07-15T10:29:35Z</time>
      </trkpt>
      <trkpt lat="45.35336" lon="4.40839">
        <ele>1040</ele>
        <time>2024-07-15T10:29:52Z</time>
      </trkpt>
      <trkpt lat="45.35339" lon="4.40836">
        <ele>1040</ele>
        <time>2024-07-15T10:29:55Z</time>
      </trkpt>
      <trkpt lat="45.35323" lon="4.40852">
        <ele>1040</ele>
        <time>2024-07-15T10:30:11Z</time>
      </trkpt>
      <trkpt lat="45.35291" lon="4.40876">
        <ele>1040</ele>
        <time>2024-07-15T10:30:40Z</time>
      </trkpt>
      <trkpt lat="45.35253" lon="4.40907">
        <ele>1041</ele>
        <time>2024-07-15T10:31:15Z</time>
      </trkpt>
      <trkpt lat="45.35111" lon="4.41025">
        <ele>1051</ele>
        <time>2024-07-15T10:33:27Z</time>
      </trkpt>
      <trkpt lat="45.35089" lon="4.41052">
        <ele>1052</ele>
        <time>2024-07-15T10:33:50Z</time>
      </trkpt>
      <trkpt lat="45.35032" lon="4.41125">
        <ele>1052</ele>
        <time>2024-07-15T10:34:51Z</time>
      </trkpt>
      <trkpt lat="45.35008" lon="4.41151">
        <ele>1052</ele>
        <time>2024-07-15T10:35:16Z</time>
      </trkpt>
      <trkpt lat="45.35002" lon="4.41156">
        <ele>1052</ele>
        <time>2024-07-15T10:35:21Z</time>
      </trkpt>
      <trkpt lat="45.34902" lon="4.41222">
        <ele>1038</ele>
        <time>2024-07-15T10:36:49Z</time>
      </trkpt>
      <trkpt lat="45.349" lon="4.41217">
        <ele>1038</ele>
        <time>2024-07-15T10:36:53Z</time>
      </trkpt>
      <trkpt lat="45.34887" lon="4.41181">
        <ele>1036</ele>
        <time>2024-07-15T10:37:15Z</time>
      </trkpt>
      <trkpt lat="45.34862" lon="4.41096">
        <ele>1030</ele>
        <time>2024-07-15T10:38:07Z</time>
      </trkpt>
      <trkpt lat="45.34848" lon="4.41021">
        <ele>1024</ele>
        <time>2024-07-15T10:38:51Z</time>
      </trkpt>
      <trkpt lat="45.34845" lon="4.40984">
        <ele>1023</ele>
        <time>2024-07-15T10:39:12Z</time>
      </trkpt>
      <trkpt lat="45.34848" lon="4.40967">
        <ele>1022</ele>
        <time>2024-07-15T10:39:22Z</time>
      </trkpt>
      <trkpt lat="45.34855" lon="4.40949">
        <ele>1022</ele>
        <time>2024-07-15T10:39:33Z</time>
      </trkpt>
      <trkpt lat="45.34862" lon="4.40939">
        <ele>1023</ele>
        <time>2024-07-15T10:39:41Z</time>
      </trkpt>
      <trkpt lat="45.34854" lon="4.40936">
        <ele>1022</ele>
        <time>2024-07-15T10:39:48Z</time>
      </trkpt>
      <trkpt lat="45.34826" lon="4.40945">
        <ele>1020</ele>
        <time>2024-07-15T10:40:11Z</time>
      </trkpt>
      <trkpt lat="45.34821" lon="4.40935">
        <ele>1019</ele>
        <time>2024-07-15T10:40:18Z</time>
      </trkpt>
      <trkpt lat="45.34786" lon="4.40861">
        <ele>1013</ele>
        <time>2024-07-15T10:41:08Z</time>
      </trkpt>
      <trkpt lat="45.34784" lon="4.40829">
        <ele>1011</ele>
        <time>2024-07-15T10:41:26Z</time>
      </trkpt>
      <trkpt lat="45.34746" lon="4.40678">
        <ele>1006</ele>
        <time>2024-07-15T10:42:56Z</time>
      </trkpt>
      <trkpt lat="45.34732" lon="4.40649">
        <ele>1007</ele>
        <time>2024-07-15T10:43:16Z</time>
      </trkpt>
      <trkpt lat="45.34726" lon="4.40643">
        <ele>1007</ele>
        <time>2024-07-15T10:43:22Z</time>
      </trkpt>
      <trkpt lat="45.34719" lon="4.40636">
        <ele>1008</ele>
        <time>2024-07-15T10:43:29Z</time>
      </trkpt>
      <trkpt lat="45.34704" lon="4.4063">
        <ele>1009</ele>
        <time>2024-07-15T10:43:41Z</time>
      </trkpt>
      <trkpt lat="45.3466" lon="4.40639">
        <ele>1009</ele>
        <time>2024-07-15T10:44:17Z</time>
      </trkpt>
      <trkpt lat="45.34599" lon="4.40629">
        <ele>1010</ele>
        <time>2024-07-15T10:45:06Z</time>
      </trkpt>
      <trkpt lat="45.34577" lon="4.4063">
        <ele>1010</ele>
        <time>2024-07-15T10:45:24Z</time>
      </trkpt>
      <trkpt lat="45.34546" lon="4.40633">
        <ele>1010</ele>
        <time>2024-07-15T10:45:49Z</time>
      </trkpt>
      <trkpt lat="45.34421" lon="4.40661">
        <ele>1005</ele>
        <time>2024-07-15T10:47:30Z</time>
      </trkpt>
      <trkpt lat="45.3442" lon="4.40656">
        <ele>1006</ele>
        <time>2024-07-15T10:47:33Z</time>
      </trkpt>
      <trkpt lat="45.34403" lon="4.40562">
        <ele>1013</ele>
        <time>2024-07-15T10:48:27Z</time>
      </trkpt>
      <trkpt lat="45.34404" lon="4.4055">
        <ele>1013</ele>
        <time>2024-07-15T10:48:34Z</time>
      </trkpt>
      <trkpt lat="45.34423" lon="4.40469">
        <ele>1015</ele>
        <time>2024-07-15T10:49:22Z</time>
      </trkpt>
      <trkpt lat="45.34437" lon="4.40387">
        <ele>1019</ele>
        <time>2024-07-15T10:50:10Z</time>
      </trkpt>
      <trkpt lat="45.34427" lon="4.40385">
        <ele>1020</ele>
        <time>2024-07-15T10:50:18Z</time>
      </trkpt>
      <trkpt lat="45.34391" lon="4.40379">
        <ele>1020</ele>
        <time>2024-07-15T10:50:47Z</time>
      </trkpt>
      <trkpt lat="45.34333" lon="4.40346">
        <ele>1018</ele>
        <time>2024-07-15T10:51:37Z</time>
      </trkpt>
      <trkpt lat="45.34328" lon="4.40353">
        <ele>1018</ele>
        <time>2024-07-15T10:51:43Z</time>
      </trkpt>
      <trkpt lat="45.34333" lon="4.40346">
        <ele>1018</ele>
        <time>2024-07-15T10:51:48Z</time>
      </trkpt>
      <trkpt lat="45.34329" lon="4.4033">
        <ele>1017</ele>
        <time>2024-07-15T10:51:58Z</time>
      </trkpt>
      <trkpt lat="45.34324" lon="4.40277">
        <ele>1016</ele>
        <time>2024-07-15T10:52:28Z</time>
      </trkpt>
      <trkpt lat="45.34327" lon="4.40191">
        <ele>1014</ele>
        <time>2024-07-15T10:53:16Z</time>
      </trkpt>
      <trkpt lat="45.34321" lon="4.40082">
        <ele>1007</ele>
        <time>2024-07-15T10:54:18Z</time>
      </trkpt>
      <trkpt lat="45.34321" lon="4.4005">
        <ele>1005</ele>
        <time>2024-07-15T10:54:36Z</time>
      </trkpt>
      <trkpt lat="45.34329" lon="4.4">
        <ele>1003</ele>
        <time>2024-07-15T10:55:05Z</time>
      </trkpt>
      <trkpt lat="45.34328" lon="4.39917">
        <ele>1004</ele>
        <time>2024-07-15T10:55:51Z</time>
      </trkpt>
      <trkpt lat="45.34324" lon="4.39878">
        <ele>1004</ele>
        <time>2024-07-15T10:56:14Z</time>
      </trkpt>
      <trkpt lat="45.34322" lon="4.39859">
        <ele>1004</ele>
        <time>2024-07-15T10:56:24Z</time>
      </trkpt>
      <trkpt lat="45.34321" lon="4.39831">
        <ele>1005</ele>
        <time>2024-07-15T10:56:40Z</time>
      </trkpt>
      <trkpt lat="45.34324" lon="4.39765">
        <ele>1003</ele>
        <time>2024-07-15T10:57:17Z</time>
      </trkpt>
      <trkpt lat="45.34325" lon="4.39711">
        <ele>1002</ele>
        <time>2024-07-15T10:57:48Z</time>
      </trkpt>
      <trkpt lat="45.3433" lon="4.39686">
        <ele>1002</ele>
        <time>2024-07-15T10:58:02Z</time>
      </trkpt>
      <trkpt lat="45.34332" lon="4.39681">
        <ele>1001</ele>
        <time>2024-07-15T10:58:06Z</time>
      </trkpt>
      <trkpt lat="45.34337" lon="4.39672">
        <ele>1001</ele>
        <time>2024-07-15T10:58:12Z</time>
      </trkpt>
      <trkpt lat="45.34338" lon="4.39664">
        <ele>1001</ele>
        <time>2024-07-15T10:58:17Z</time>
      </trkpt>
      <trkpt lat="45.34337" lon="4.3965">
        <ele>1000</ele>
        <time>2024-07-15T10:58:25Z</time>
      </trkpt>
      <trkpt lat="45.34353" lon="4.39574">
        <ele>998</ele>
        <time>2024-07-15T10:59:09Z</time>
      </trkpt>
      <trkpt lat="45.34359" lon="4.39499">
        <ele>996</ele>
        <time>2024-07-15T10:59:52Z</time>
      </trkpt>
      <trkpt lat="45.34363" lon="4.39483">
        <ele>996</ele>
        <time>2024-07-15T11:00:01Z</time>
      </trkpt>
      <trkpt lat="45.34371" lon="4.39462">
        <ele>995</ele>
        <time>2024-07-15T11:00:15Z</time>
      </trkpt>
      <trkpt lat="45.34373" lon="4.39442">
        <ele>995</ele>
        <time>2024-07-15T11:00:26Z</time>
      </trkpt>
      <trkpt lat="45.34381" lon="4.39408">
        <ele>995</ele>
        <time>2024-07-15T11:00:46Z</time>
      </trkpt>
      <trkpt lat="45.34385" lon="4.39377">
        <ele>995</ele>
        <time>2024-07-15T11:01:04Z</time>
      </trkpt>
      <trkpt lat="45.34389" lon="4.39362">
        <ele>995</ele>
        <time>2024-07-15T11:01:13Z</time>
      </trkpt>
      <trkpt lat="45.34404" lon="4.39321">
        <ele>995</ele>
        <time>2024-07-15T11:01:39Z</time>
      </trkpt>
      <trkpt lat="45.34417" lon="4.39302">
        <ele>996</ele>
        <time>2024-07-15T11:01:54Z</time>
      </trkpt>
      <trkpt lat="45.34427" lon="4.39282">
        <ele>995</ele>
        <time>2024-07-15T11:02:08Z</time>
      </trkpt>
      <trkpt lat="45.34435" lon="4.3927">
        <ele>994</ele>
        <time>2024-07-15T11:02:17Z</time>
      </trkpt>
      <trkpt lat="45.34448" lon="4.39252">
        <ele>993</ele>
        <time>2024-07-15T11:02:32Z</time>
      </trkpt>
      <trkpt lat="45.34463" lon="4.39238">
        <ele>991</ele>
        <time>2024-07-15T11:02:46Z</time>
      </trkpt>
      <trkpt lat="45.3447" lon="4.39227">
        <ele>990</ele>
        <time>2024-07-15T11:02:54Z</time>
      </trkpt>
      <trkpt lat="45.34473" lon="4.39218">
        <ele>989</ele>
        <time>2024-07-15T11:03:00Z</time>
      </trkpt>
      <trkpt lat="45.34477" lon="4.39183">
        <ele>987</ele>
        <time>2024-07-15T11:03:20Z</time>
      </trkpt>
      <trkpt lat="45.34477" lon="4.39171">
        <ele>986</ele>
        <time>2024-07-15T11:03:27Z</time>
      </trkpt>
      <trkpt lat="45.34474" lon="4.39153">
        <ele>985</ele>
        <time>2024-07-15T11:03:37Z</time>
      </trkpt>
      <trkpt lat="45.34475" lon="4.39139">
        <ele>983</ele>
        <time>2024-07-15T11:03:45Z</time>
      </trkpt>
      <trkpt lat="45.34482" lon="4.3911">
        <ele>981</ele>
        <time>2024-07-15T11:04:02Z</time>
      </trkpt>
      <trkpt lat="45.34483" lon="4.39092">
        <ele>979</ele>
        <time>2024-07-15T11:04:12Z</time>
      </trkpt>
      <trkpt lat="45.34478" lon="4.39094">
        <ele>979</ele>
        <time>2024-07-15T11:04:16Z</time>
      </trkpt>
      <trkpt lat="45.34483" lon="4.39092">
        <ele>979</ele>
        <time>2024-07-15T11:04:21Z</time>
      </trkpt>
      <trkpt lat="45.34488" lon="4.39085">
        <ele>978</ele>
        <time>2024-07-15T11:04:26Z</time>
      </trkpt>
      <trkpt lat="45.34499" lon="4.39049">
        <ele>977</ele>
        <time>2024-07-15T11:04:48Z</time>
      </trkpt>
      <trkpt lat="45.34504" lon="4.39012">
        <ele>976</ele>
        <time>2024-07-15T11:05:10Z</time>
      </trkpt>
      <trkpt lat="45.34505" lon="4.38999">
        <ele>976</ele>
        <time>2024-07-15T11:05:17Z</time>
      </trkpt>
      <trkpt lat="45.34504" lon="4.39012">
        <ele>976</ele>
        <time>2024-07-15T11:05:24Z</time>
      </trkpt>
      <trkpt lat="45.34473" lon="4.38936">
        <ele>973</ele>
        <time>2024-07-15T11:06:14Z</time>
      </trkpt>
      <trkpt lat="45.3442" lon="4.3877">
        <ele>958</ele>
        <time>2024-07-15T11:07:56Z</time>
      </trkpt>
      <trkpt lat="45.34408" lon="4.38727">
        <ele>954</ele>
        <time>2024-07-15T11:08:22Z</time>
      </trkpt>
      <trkpt lat="45.34406" lon="4.38694">
        <ele>952</ele>
        <time>2024-07-15T11:08:41Z</time>
      </trkpt>
      <trkpt lat="45.3439" lon="4.3862">
        <ele>948</ele>
        <time>2024-07-15T11:09:25Z</time>
      </trkpt>
      <trkpt lat="45.34384" lon="4.386">
        <ele>947</ele>
        <time>2024-07-15T11:09:37Z</time>
      </trkpt>
      <trkpt lat="45.3436" lon="4.38531">
        <ele>944</ele>
        <time>2024-07-15T11:10:20Z</time>
      </trkpt>
      <trkpt lat="45.34359" lon="4.38524">
        <ele>944</ele>
        <time>2024-07-15T11:10:24Z</time>
      </trkpt>
      <trkpt lat="45.34358" lon="4.38518">
        <ele>944</ele>
        <time>2024-07-15T11:10:28Z</time>
      </trkpt>
      <trkpt lat="45.34272" lon="4.38495">
        <ele>939</ele>
        <time>2024-07-15T11:11:38Z</time>
      </trkpt>
      <trkpt lat="45.34271" lon="4.38494">
        <ele>939</ele>
        <time>2024-07-15T11:11:39Z</time>
      </trkpt>
      <trkpt lat="45.34281" lon="4.38468">
        <ele>939</ele>
        <time>2024-07-15T11:11:55Z</time>
      </trkpt>
      <trkpt lat="45.34308" lon="4.38375">
        <ele>938</ele>
        <time>2024-07-15T11:12:52Z</time>
      </trkpt>
      <trkpt lat="45.34311" lon="4.38359">
        <ele>937</ele>
        <time>2024-07-15T11:13:01Z</time>
      </trkpt>
      <trkpt lat="45.34312" lon="4.38341">
        <ele>937</ele>
        <time>2024-07-15T11:13:11Z</time>
      </trkpt>
      <trkpt lat="45.34315" lon="4.38277">
        <ele>933</ele>
        <time>2024-07-15T11:13:48Z</time>
      </trkpt>
      <trkpt lat="45.34318" lon="4.38261">
        <ele>932</ele>
        <time>2024-07-15T11:13:57Z</time>
      </trkpt>
      <trkpt lat="45.34346" lon="4.38178">
        <ele>925</ele>
        <time>2024-07-15T11:14:49Z</time>
      </trkpt>
      <trkpt lat="45.34363" lon="4.3812">
        <ele>925</ele>
        <time>2024-07-15T11:15:24Z</time>
      </trkpt>
      <trkpt lat="45.34374" lon="4.38094">
        <ele>925</ele>
        <time>2024-07-15T11:15:41Z</time>
      </trkpt>
      <trkpt lat="45.34411" lon="4.38047">
        <ele>923</ele>
        <time>2024-07-15T11:16:21Z</time>
      </trkpt>
      <trkpt lat="45.34436" lon="4.38008">
        <ele>922</ele>
        <time>2024-07-15T11:16:51Z</time>
      </trkpt>
      <trkpt lat="45.34455" lon="4.37965">
        <ele>921</ele>
        <time>2024-07-15T11:17:19Z</time>
      </trkpt>
      <trkpt lat="45.34461" lon="4.37946">
        <ele>920</ele>
        <time>2024-07-15T11:17:31Z</time>
      </trkpt>
      <trkpt lat="45.34466" lon="4.3793">
        <ele>920</ele>
        <time>2024-07-15T11:17:41Z</time>
      </trkpt>
      <trkpt lat="45.34472" lon="4.37903">
        <ele>919</ele>
        <time>2024-07-15T11:17:57Z</time>
      </trkpt>
      <trkpt lat="45.34474" lon="4.37888">
        <ele>919</ele>
        <time>2024-07-15T11:18:05Z</time>
      </trkpt>
      <trkpt lat="45.34473" lon="4.37858">
        <ele>918</ele>
        <time>2024-07-15T11:18:22Z</time>
      </trkpt>
      <trkpt lat="45.34468" lon="4.3782">
        <ele>918</ele>
        <time>2024-07-15T11:18:44Z</time>
      </trkpt>
      <trkpt lat="45.34468" lon="4.37801">
        <ele>918</ele>
        <time>2024-07-15T11:18:55Z</time>
      </trkpt>
      <trkpt lat="45.34473" lon="4.37764">
        <ele>916</ele>
        <time>2024-07-15T11:19:16Z</time>
      </trkpt>
      <trkpt lat="45.34487" lon="4.37712">
        <ele>916</ele>
        <time>2024-07-15T11:19:47Z</time>
      </trkpt>
      <trkpt lat="45.34519" lon="4.37615">
        <ele>914</ele>
        <time>2024-07-15T11:20:47Z</time>
      </trkpt>
      <trkpt lat="45.34522" lon="4.376">
        <ele>914</ele>
        <time>2024-07-15T11:20:56Z</time>
      </trkpt>
      <trkpt lat="45.34524" lon="4.37567">
        <ele>913</ele>
        <time>2024-07-15T11:21:15Z</time>
      </trkpt>
      <trkpt lat="45.3453" lon="4.37548">
        <ele>913</ele>
        <time>2024-07-15T11:21:27Z</time>
      </trkpt>
      <trkpt lat="45.34547" lon="4.37517">
        <ele>912</ele>
        <time>2024-07-15T11:21:49Z</time>
      </trkpt>
      <trkpt lat="45.34562" lon="4.37505">
        <ele>912</ele>
        <time>2024-07-15T11:22:02Z</time>
      </trkpt>
      <trkpt lat="45.34578" lon="4.37495">
        <ele>912</ele>
        <time>2024-07-15T11:22:16Z</time>
      </trkpt>
      <trkpt lat="45.34594" lon="4.37447">
        <ele>908</ele>
        <time>2024-07-15T11:22:46Z</time>
      </trkpt>
      <trkpt lat="45.34598" lon="4.37437">
        <ele>908</ele>
        <time>2024-07-15T11:22:53Z</time>
      </trkpt>
      <trkpt lat="45.34611" lon="4.37418">
        <ele>906</ele>
        <time>2024-07-15T11:23:08Z</time>
      </trkpt>
      <trkpt lat="45.34617" lon="4.37402">
        <ele>905</ele>
        <time>2024-07-15T11:23:18Z</time>
      </trkpt>
      <trkpt lat="45.34618" lon="4.37391">
        <ele>905</ele>
        <time>2024-07-15T11:23:24Z</time>
      </trkpt>
      <trkpt lat="45.34616" lon="4.37382">
        <ele>905</ele>
        <time>2024-07-15T11:23:30Z</time>
      </trkpt>
      <trkpt lat="45.346" lon="4.37333">
        <ele>903</ele>
        <time>2024-07-15T11:24:00Z</time>
      </trkpt>
      <trkpt lat="45.34486" lon="4.37271">
        <ele>898</ele>
        <time>2024-07-15T11:25:38Z</time>
      </trkpt>
      <trkpt lat="45.34433" lon="4.37159">
        <ele>891</ele>
        <time>2024-07-15T11:26:54Z</time>
      </trkpt>
      <trkpt lat="45.34436" lon="4.37144">
        <ele>889</ele>
        <time>2024-07-15T11:27:02Z</time>
      </trkpt>
      <trkpt lat="45.34445" lon="4.37108">
        <ele>884</ele>
        <time>2024-07-15T11:27:24Z</time>
      </trkpt>
      <trkpt lat="45.34494" lon="4.37069">
        <ele>878</ele>
        <time>2024-07-15T11:28:09Z</time>
      </trkpt>
      <trkpt lat="45.34502" lon="4.3706">
        <ele>877</ele>
        <time>2024-07-15T11:28:17Z</time>
      </trkpt>
      <trkpt lat="45.34607" lon="4.36921">
        <ele>880</ele>
        <time>2024-07-15T11:30:12Z</time>
      </trkpt>
      <trkpt lat="45.34693" lon="4.36816">
        <ele>892</ele>
        <time>2024-07-15T11:31:43Z</time>
      </trkpt>
      <trkpt lat="45.34735" lon="4.36734">
        <ele>899</ele>
        <time>2024-07-15T11:32:40Z</time>
      </trkpt>
      <trkpt lat="45.34787" lon="4.36554">
        <ele>913</ele>
        <time>2024-07-15T11:34:29Z</time>
      </trkpt>
      <trkpt lat="45.34819" lon="4.36462">
        <ele>914</ele>
        <time>2024-07-15T11:35:27Z</time>
      </trkpt>
      <trkpt lat="45.34838" lon="4.36448">
        <ele>912</ele>
        <time>2024-07-15T11:35:44Z</time>
      </trkpt>
      <trkpt lat="45.34819" lon="4.36462">
        <ele>914</ele>
        <time>2024-07-15T11:36:01Z</time>
      </trkpt>
      <trkpt lat="45.34845" lon="4.36389">
        <ele>915</ele>
        <time>2024-07-15T11:36:47Z</time>
      </trkpt>
      <trkpt lat="45.34876" lon="4.36224">
        <ele>919</ele>
        <time>2024-07-15T11:38:23Z</time>
      </trkpt>
      <trkpt lat="45.34882" lon="4.36157">
        <ele>914</ele>
        <time>2024-07-15T11:39:01Z</time>
      </trkpt>
      <trkpt lat="45.34885" lon="4.36064">
        <ele>910</ele>
        <time>2024-07-15T11:39:54Z</time>
      </trkpt>
      <trkpt lat="45.34884" lon="4.36057">
        <ele>909</ele>
        <time>2024-07-15T11:39:58Z</time>
      </trkpt>
      <trkpt lat="45.34878" lon="4.36049">
        <ele>909</ele>
        <time>2024-07-15T11:40:04Z</time>
      </trkpt>
      <trkpt lat="45.3487" lon="4.36058">
        <ele>911</ele>
        <time>2024-07-15T11:40:13Z</time>
      </trkpt>
      <trkpt lat="45.34878" lon="4.36049">
        <ele>909</ele>
        <time>2024-07-15T11:40:21Z</time>
      </trkpt>
      <trkpt lat="45.34904" lon="4.36016">
        <ele>907</ele>
        <time>2024-07-15T11:40:49Z</time>
      </trkpt>
      <trkpt lat="45.34922" lon="4.36003">
        <ele>906</ele>
        <time>2024-07-15T11:41:05Z</time>
      </trkpt>
      <trkpt lat="45.35018" lon="4.35952">
        <ele>907</ele>
        <time>2024-07-15T11:42:27Z</time>
      </trkpt>
      <trkpt lat="45.35041" lon="4.35935">
        <ele>907</ele>
        <time>2024-07-15T11:42:48Z</time>
      </trkpt>
      <trkpt lat="45.35058" lon="4.35917">
        <ele>907</ele>
        <time>2024-07-15T11:43:05Z</time>
      </trkpt>
      <trkpt lat="45.35078" lon="4.35891">
        <ele>908</ele>
        <time>2024-07-15T11:43:26Z</time>
      </trkpt>
      <trkpt lat="45.35119" lon="4.35829">
        <ele>908</ele>
        <time>2024-07-15T11:44:14Z</time>
      </trkpt>
      <trkpt lat="45.35143" lon="4.35781">
        <ele>906</ele>
        <time>2024-07-15T11:44:47Z</time>
      </trkpt>
      <trkpt lat="45.35153" lon="4.35739">
        <ele>906</ele>
        <time>2024-07-15T11:45:12Z</time>
      </trkpt>
      <trkpt lat="45.3516" lon="4.35724">
        <ele>906</ele>
        <time>2024-07-15T11:45:22Z</time>
      </trkpt>
      <trkpt lat="45.3517" lon="4.35706">
        <ele>906</ele>
        <time>2024-07-15T11:45:35Z</time>
      </trkpt>
      <trkpt lat="45.35228" lon="4.35637">
        <ele>908</ele>
        <time>2024-07-15T11:46:36Z</time>
      </trkpt>
      <trkpt lat="45.3528" lon="4.35558">
        <ele>910</ele>
        <time>2024-07-15T11:47:37Z</time>
      </trkpt>
      <trkpt lat="45.3534" lon="4.35501">
        <ele>916</ele>
        <time>2024-07-15T11:48:34Z</time>
      </trkpt>
      <trkpt lat="45.35393" lon="4.3544">
        <ele>921</ele>
        <time>2024-07-15T11:49:29Z</time>
      </trkpt>
      <trkpt lat="45.35421" lon="4.35411">
        <ele>923</ele>
        <time>2024-07-15T11:49:57Z</time>
      </trkpt>
      <trkpt lat="45.35578" lon="4.35264">
        <ele>931</ele>
        <time>2024-07-15T11:52:27Z</time>
      </trkpt>
      <trkpt lat="45.35593" lon="4.35252">
        <ele>931</ele>
        <time>2024-07-15T11:52:41Z</time>
      </trkpt>
      <trkpt lat="45.35623" lon="4.35228">
        <ele>930</ele>
        <time>2024-07-15T11:53:09Z</time>
      </trkpt>
      <trkpt lat="45.35674" lon="4.35202">
        <ele>929</ele>
        <time>2024-07-15T11:53:52Z</time>
      </trkpt>
      <trkpt lat="45.3579" lon="4.35089">
        <ele>913</ele>
        <time>2024-07-15T11:55:45Z</time>
      </trkpt>
      <trkpt lat="45.35781" lon="4.35077">
        <ele>914</ele>
        <time>2024-07-15T11:55:54Z</time>
      </trkpt>
      <trkpt lat="45.35855" lon="4.35265">
        <ele>915</ele>
        <time>2024-07-15T11:57:56Z</time>
      </trkpt>
      <trkpt lat="45.35893" lon="4.35421">
        <ele>909</ele>
        <time>2024-07-15T11:59:29Z</time>
      </trkpt>
      <trkpt lat="45.35909" lon="4.35437">
        <ele>908</ele>
        <time>2024-07-15T11:59:44Z</time>
      </trkpt>
      <trkpt lat="45.35942" lon="4.35454">
        <ele>904</ele>
        <time>2024-07-15T12:00:12Z</time>
      </trkpt>
      <trkpt lat="45.35947" lon="4.35463">
        <ele>904</ele>
        <time>2024-07-15T12:00:19Z</time>
      </trkpt>
      <trkpt lat="45.35981" lon="4.3552">
        <ele>902</ele>
        <time>2024-07-15T12:01:01Z</time>
      </trkpt>
      <trkpt lat="45.35968" lon="4.35549">
        <ele>902</ele>
        <time>2024-07-15T12:01:20Z</time>
      </trkpt>
      <trkpt lat="45.35965" lon="4.35561">
        <ele>902</ele>
        <time>2024-07-15T12:01:27Z</time>
      </trkpt>
      <trkpt lat="45.35967" lon="4.35582">
        <ele>901</ele>
        <time>2024-07-15T12:01:39Z</time>
      </trkpt>
      <trkpt lat="45.35988" lon="4.35685">
        <ele>890</ele>
        <time>2024-07-15T12:02:40Z</time>
      </trkpt>
      <trkpt lat="45.35991" lon="4.35709">
        <ele>887</ele>
        <time>2024-07-15T12:02:53Z</time>
      </trkpt>
      <trkpt lat="45.36005" lon="4.3585">
        <ele>868</ele>
        <time>2024-07-15T12:04:13Z</time>
      </trkpt>
      <trkpt lat="45.35969" lon="4.35849">
        <ele>870</ele>
        <time>2024-07-15T12:04:42Z</time>
      </trkpt>
      <trkpt lat="45.35951" lon="4.35859">
        <ele>870</ele>
        <time>2024-07-15T12:04:58Z</time>
      </trkpt>
      <trkpt lat="45.35925" lon="4.35881">
        <ele>867</ele>
        <time>2024-07-15T12:05:22Z</time>
      </trkpt>
      <trkpt lat="45.35918" lon="4.35889">
        <ele>865</ele>
        <time>2024-07-15T12:05:29Z</time>
      </trkpt>
      <trkpt lat="45.35907" lon="4.35898">
        <ele>862</ele>
        <time>2024-07-15T12:05:39Z</time>
      </trkpt>
      <trkpt lat="45.35895" lon="4.35904">
        <ele>860</ele>
        <time>2024-07-15T12:05:49Z</time>
      </trkpt>
      <trkpt lat="45.35875" lon="4.35908">
        <ele>858</ele>
        <time>2024-07-15T12:06:06Z</time>
      </trkpt>
      <trkpt lat="45.35811" lon="4.35905">
        <ele>854</ele>
        <time>2024-07-15T12:06:57Z</time>
      </trkpt>
      <trkpt lat="45.35779" lon="4.35905">
        <ele>853</ele>
        <time>2024-07-15T12:07:23Z</time>
      </trkpt>
      <trkpt lat="45.35752" lon="4.35921">
        <ele>847</ele>
        <time>2024-07-15T12:07:46Z</time>
      </trkpt>
      <trkpt lat="45.35743" lon="4.35932">
        <ele>846</ele>
        <time>2024-07-15T12:07:55Z</time>
      </trkpt>
      <trkpt lat="45.35716" lon="4.35938">
        <ele>848</ele>
        <time>2024-07-15T12:08:17Z</time>
      </trkpt>
      <trkpt lat="45.35697" lon="4.35934">
        <ele>852</ele>
        <time>2024-07-15T12:08:33Z</time>
      </trkpt>
      <trkpt lat="45.35684" lon="4.35935">
        <ele>854</ele>
        <time>2024-07-15T12:08:43Z</time>
      </trkpt>
      <trkpt lat="45.35676" lon="4.35949">
        <ele>853</ele>
        <time>2024-07-15T12:08:53Z</time>
      </trkpt>
      <trkpt lat="45.35678" lon="4.35979">
        <ele>847</ele>
        <time>2024-07-15T12:09:10Z</time>
      </trkpt>
      <trkpt lat="45.35683" lon="4.3601">
        <ele>843</ele>
        <time>2024-07-15T12:09:28Z</time>
      </trkpt>
      <trkpt lat="45.35678" lon="4.36044">
        <ele>845</ele>
        <time>2024-07-15T12:09:48Z</time>
      </trkpt>
      <trkpt lat="45.357" lon="4.36134">
        <ele>836</ele>
        <time>2024-07-15T12:10:41Z</time>
      </trkpt>
      <trkpt lat="45.35715" lon="4.36168">
        <ele>832</ele>
        <time>2024-07-15T12:11:04Z</time>
      </trkpt>
      <trkpt lat="45.3574" lon="4.36181">
        <ele>826</ele>
        <time>2024-07-15T12:11:25Z</time>
      </trkpt>
      <trkpt lat="45.3576" lon="4.36198">
        <ele>820</ele>
        <time>2024-07-15T12:11:44Z</time>
      </trkpt>
      <trkpt lat="45.35824" lon="4.3624">
        <ele>807</ele>
        <time>2024-07-15T12:12:40Z</time>
      </trkpt>
      <trkpt lat="45.35839" lon="4.36259">
        <ele>804</ele>
        <time>2024-07-15T12:12:56Z</time>
      </trkpt>
      <trkpt lat="45.3583" lon="4.36283">
        <ele>801</ele>
        <time>2024-07-15T12:13:12Z</time>
      </trkpt>
      <trkpt lat="45.35801" lon="4.36311">
        <ele>797</ele>
        <time>2024-07-15T12:13:40Z</time>
      </trkpt>
      <trkpt lat="45.35789" lon="4.36317">
        <ele>796</ele>
        <time>2024-07-15T12:13:50Z</time>
      </trkpt>
      <trkpt lat="45.35772" lon="4.36325">
        <ele>794</ele>
        <time>2024-07-15T12:14:04Z</time>
      </trkpt>
      <trkpt lat="45.35703" lon="4.36309">
        <ele>802</ele>
        <time>2024-07-15T12:15:00Z</time>
      </trkpt>
      <trkpt lat="45.35683" lon="4.36323">
        <ele>799</ele>
        <time>2024-07-15T12:15:18Z</time>
      </trkpt>
      <trkpt lat="45.35663" lon="4.36347">
        <ele>795</ele>
        <time>2024-07-15T12:15:39Z</time>
      </trkpt>
      <trkpt lat="45.35641" lon="4.36384">
        <ele>791</ele>
        <time>2024-07-15T12:16:06Z</time>
      </trkpt>
      <trkpt lat="45.35622" lon="4.364">
        <ele>791</ele>
        <time>2024-07-15T12:16:24Z</time>
      </trkpt>
      <trkpt lat="45.35625" lon="4.36376">
        <ele>796</ele>
        <time>2024-07-15T12:16:38Z</time>
      </trkpt>
      <trkpt lat="45.35622" lon="4.364">
        <ele>791</ele>
        <time>2024-07-15T12:16:51Z</time>
      </trkpt>
      <trkpt lat="45.35609" lon="4.36412">
        <ele>791</ele>
        <time>2024-07-15T12:17:04Z</time>
      </trkpt>
      <trkpt lat="45.35582" lon="4.36429">
        <ele>793</ele>
        <time>2024-07-15T12:17:27Z</time>
      </trkpt>
      <trkpt lat="45.35565" lon="4.36478">
        <ele>787</ele>
        <time>2024-07-15T12:17:58Z</time>
      </trkpt>
      <trkpt lat="45.35549" lon="4.36498">
        <ele>787</ele>
        <time>2024-07-15T12:18:15Z</time>
      </trkpt>
      <trkpt lat="45.35547" lon="4.36504">
        <ele>788</ele>
        <time>2024-07-15T12:18:19Z</time>
      </trkpt>
      <trkpt lat="45.35538" lon="4.36527">
        <ele>790</ele>
        <time>2024-07-15T12:18:34Z</time>
      </trkpt>
      <trkpt lat="45.35538" lon="4.36576">
        <ele>791</ele>
        <time>2024-07-15T12:19:01Z</time>
      </trkpt>
      <trkpt lat="45.35517" lon="4.36682">
        <ele>794</ele>
        <time>2024-07-15T12:20:03Z</time>
      </trkpt>
      <trkpt lat="45.35516" lon="4.36709">
        <ele>796</ele>
        <time>2024-07-15T12:20:19Z</time>
      </trkpt>
      <trkpt lat="45.3552" lon="4.36713">
        <ele>797</ele>
        <time>2024-07-15T12:20:22Z</time>
      </trkpt>
      <trkpt lat="45.35531" lon="4.36681">
        <ele>797</ele>
        <time>2024-07-15T12:20:42Z</time>
      </trkpt>
      <trkpt lat="45.35545" lon="4.36654">
        <ele>797</ele>
        <time>2024-07-15T12:21:01Z</time>
      </trkpt>
      <trkpt lat="45.35584" lon="4.36612">
        <ele>797</ele>
        <time>2024-07-15T12:21:40Z</time>
      </trkpt>
      <trkpt lat="45.356" lon="4.36606">
        <ele>799</ele>
        <time>2024-07-15T12:21:54Z</time>
      </trkpt>
      <trkpt lat="45.35606" lon="4.3662">
        <ele>802</ele>
        <time>2024-07-15T12:22:03Z</time>
      </trkpt>
      <trkpt lat="45.35567" lon="4.36703">
        <ele>808</ele>
        <time>2024-07-15T12:22:59Z</time>
      </trkpt>
      <trkpt lat="45.3557" lon="4.36721">
        <ele>811</ele>
        <time>2024-07-15T12:23:10Z</time>
      </trkpt>
      <trkpt lat="45.35574" lon="4.36728">
        <ele>813</ele>
        <time>2024-07-15T12:23:15Z</time>
      </trkpt>
      <trkpt lat="45.35644" lon="4.36697">
        <ele>822</ele>
        <time>2024-07-15T12:24:13Z</time>
      </trkpt>
      <trkpt lat="45.3564" lon="4.36713">
        <ele>824</ele>
        <time>2024-07-15T12:24:23Z</time>
      </trkpt>
      <trkpt lat="45.35629" lon="4.36754">
        <ele>828</ele>
        <time>2024-07-15T12:24:48Z</time>
      </trkpt>
      <trkpt lat="45.35622" lon="4.36814">
        <ele>835</ele>
        <time>2024-07-15T12:25:22Z</time>
      </trkpt>
      <trkpt lat="45.35617" lon="4.36963">
        <ele>845</ele>
        <time>2024-07-15T12:26:46Z</time>
      </trkpt>
      <trkpt lat="45.35622" lon="4.37072">
        <ele>847</ele>
        <time>2024-07-15T12:27:47Z</time>
      </trkpt>
      <trkpt lat="45.35631" lon="4.37095">
        <ele>848</ele>
        <time>2024-07-15T12:28:02Z</time>
      </trkpt>
      <trkpt lat="45.35645" lon="4.37111">
        <ele>851</ele>
        <time>2024-07-15T12:28:16Z</time>
      </trkpt>
      <trkpt lat="45.35661" lon="4.37134">
        <ele>853</ele>
        <time>2024-07-15T12:28:35Z</time>
      </trkpt>
      <trkpt lat="45.35689" lon="4.37227">
        <ele>858</ele>
        <time>2024-07-15T12:29:32Z</time>
      </trkpt>
      <trkpt lat="45.35699" lon="4.37258">
        <ele>859</ele>
        <time>2024-07-15T12:29:51Z</time>
      </trkpt>
      <trkpt lat="45.35701" lon="4.37293">
        <ele>860</ele>
        <time>2024-07-15T12:30:10Z</time>
      </trkpt>
      <trkpt lat="45.357" lon="4.37329">
        <ele>859</ele>
        <time>2024-07-15T12:30:31Z</time>
      </trkpt>
      <trkpt lat="45.35758" lon="4.37427">
        <ele>868</ele>
        <time>2024-07-15T12:31:43Z</time>
      </trkpt>
      <trkpt lat="45.35764" lon="4.37438">
        <ele>868</ele>
        <time>2024-07-15T12:31:51Z</time>
      </trkpt>
      <trkpt lat="45.35766" lon="4.3749">
        <ele>870</ele>
        <time>2024-07-15T12:32:20Z</time>
      </trkpt>
      <trkpt lat="45.35771" lon="4.37521">
        <ele>872</ele>
        <time>2024-07-15T12:32:38Z</time>
      </trkpt>
      <trkpt lat="45.3578" lon="4.37548">
        <ele>874</ele>
        <time>2024-07-15T12:32:55Z</time>
      </trkpt>
      <trkpt lat="45.35792" lon="4.37569">
        <ele>875</ele>
        <time>2024-07-15T12:33:10Z</time>
      </trkpt>
      <trkpt lat="45.358" lon="4.37592">
        <ele>876</ele>
        <time>2024-07-15T12:33:24Z</time>
      </trkpt>
      <trkpt lat="45.35805" lon="4.37622">
        <ele>877</ele>
        <time>2024-07-15T12:33:42Z</time>
      </trkpt>
      <trkpt lat="45.35806" lon="4.37691">
        <ele>880</ele>
        <time>2024-07-15T12:34:21Z</time>
      </trkpt>
      <trkpt lat="45.35807" lon="4.37689">
        <ele>880</ele>
        <time>2024-07-15T12:34:22Z</time>
      </trkpt>
    </trkseg>
  </trk>
</gpx>